Mocamedes, Namibe Airport (FNMO)

NameNamibe Airport
CityMocamedes
CountryAngola
ICAOFNMO
IATAMSZ
Altitude64 m
CoordinatesGoogle Map
Live Air TrafficLiveATC.net
METARFNMO 201600Z 27011KT 9999 SCT011 BKN016 25/19 Q1008
2019-10-20 16:00:00 Wind: West (270°) 5.66 m/s - Visibility: > 10000 m - Temperature: 25 °C - Dew point: 19 °C - Humidity: 69.4% - Pressure: 1008 hPa
Statistics

The table below shows the detailed information of all flights to/from Mocamedes, Namibe Airport (FNMO).